createdAt,value
2022-07-25T00:00:18.945Z,9.93
2022-07-25T00:02:52.282Z,9.80
2022-07-25T00:05:25.208Z,11.18
2022-07-25T00:07:58.446Z,14.40
2022-07-25T00:10:33.053Z,11.00
2022-07-25T00:13:06.216Z,8.50
2022-07-25T00:15:39.103Z,11.32
2022-07-25T00:18:12.233Z,12.10
2022-07-25T00:20:45.158Z,10.40
2022-07-25T00:23:18.206Z,10.02
2022-07-25T00:25:52.455Z,7.93
2022-07-25T00:28:25.434Z,7.93
2022-07-25T00:30:58.431Z,8.63
2022-07-25T00:33:31.451Z,10.32
2022-07-25T00:36:04.537Z,9.48
2022-07-25T00:38:37.608Z,12.90
2022-07-25T00:41:12.052Z,9.32
2022-07-25T00:43:45.735Z,7.70
2022-07-25T00:46:19.338Z,10.68
2022-07-25T00:48:54.074Z,7.50
2022-07-25T00:51:27.309Z,8.38
2022-07-25T00:54:00.350Z,8.73
2022-07-25T00:56:34.716Z,7.72
2022-07-25T00:59:08.270Z,9.75
2022-07-25T01:01:42.824Z,7.18
2022-07-25T01:04:16.580Z,7.07
2022-07-25T01:06:49.820Z,7.30
2022-07-25T01:09:23.900Z,8.27
2022-07-25T01:11:58.144Z,12.95
2022-07-25T01:14:31.158Z,14.40
2022-07-25T01:17:04.260Z,14.15
2022-07-25T01:19:37.451Z,7.72
2022-07-25T01:22:11.851Z,8.63
2022-07-25T01:24:44.942Z,9.27
2022-07-25T01:27:17.961Z,6.90
2022-07-25T01:29:50.878Z,8.82
2022-07-25T01:32:23.727Z,7.22
2022-07-25T01:34:56.700Z,10.05
2022-07-25T01:37:30.896Z,13.63
2022-07-25T01:40:05.927Z,10.18
2022-07-25T01:42:38.868Z,9.25
2022-07-25T01:45:13.101Z,11.32
2022-07-25T01:47:46.088Z,8.77
2022-07-25T01:50:19.240Z,8.45
2022-07-25T01:52:53.581Z,9.07
2022-07-25T01:55:26.676Z,7.38
2022-07-25T01:58:02.222Z,6.72
2022-07-25T02:00:35.652Z,13.48
2022-07-25T02:03:25.921Z,8.48
2022-07-25T02:06:00.237Z,8.43
2022-07-25T02:08:34.984Z,8.38
2022-07-25T02:11:08.231Z,10.20
2022-07-25T02:13:41.096Z,8.52
2022-07-25T02:16:14.343Z,12.60
2022-07-25T02:18:47.729Z,7.85
2022-07-25T02:21:21.151Z,8.60
2022-07-25T02:23:55.577Z,9.23
2022-07-25T02:26:28.639Z,6.22
2022-07-25T02:29:01.574Z,10.30
2022-07-25T02:31:34.586Z,8.13
2022-07-25T02:34:08.001Z,6.53
2022-07-25T02:36:41.187Z,18.67
2022-07-25T02:39:16.120Z,6.43
2022-07-25T02:41:49.225Z,6.55
2022-07-25T02:44:22.140Z,4.75
2022-07-25T02:46:56.101Z,6.75
2022-07-25T02:49:29.162Z,7.82
2022-07-25T02:52:02.156Z,7.78
2022-07-25T02:54:36.317Z,6.88
2022-07-25T02:57:09.319Z,7.30
2022-07-25T02:59:42.312Z,4.72
2022-07-25T03:02:15.456Z,16.15
2022-07-25T03:04:48.510Z,7.50
2022-07-25T03:07:21.477Z,7.13
2022-07-25T03:09:55.738Z,7.35
2022-07-25T03:12:28.821Z,8.65
2022-07-25T03:15:02.782Z,6.00
2022-07-25T03:17:36.127Z,5.03
2022-07-25T03:20:10.654Z,5.72
2022-07-25T03:22:43.925Z,5.32
2022-07-25T03:25:21.769Z,7.95
2022-07-25T03:27:56.383Z,7.30
2022-07-25T03:30:29.344Z,6.75
2022-07-25T03:33:02.926Z,5.05
2022-07-25T03:35:37.955Z,6.35
2022-07-25T03:38:11.217Z,7.93
2022-07-25T03:40:45.639Z,5.82
2022-07-25T03:43:18.687Z,4.75
2022-07-25T03:45:51.663Z,5.70
2022-07-25T03:48:24.749Z,9.77
2022-07-25T03:50:57.901Z,6.57
2022-07-25T03:53:31.093Z,10.23
2022-07-25T03:56:05.954Z,6.45
2022-07-25T03:58:38.936Z,7.40
2022-07-25T04:01:12.130Z,7.35
2022-07-25T04:03:45.534Z,4.47
2022-07-25T04:06:18.705Z,5.80
2022-07-25T04:08:52.008Z,5.78
2022-07-25T04:11:26.443Z,8.48
2022-07-25T04:14:00.004Z,5.40
2022-07-25T04:16:33.254Z,6.43
2022-07-25T04:19:07.602Z,4.65
2022-07-25T04:21:41.675Z,5.78
2022-07-25T04:24:14.838Z,5.15
2022-07-25T04:26:49.160Z,4.70
2022-07-25T04:29:22.404Z,5.57
2022-07-25T04:31:55.544Z,4.15
2022-07-25T04:34:28.613Z,5.07
2022-07-25T04:37:01.573Z,4.18
2022-07-25T04:39:35.135Z,6.70
2022-07-25T04:42:09.557Z,10.65
2022-07-25T04:44:42.551Z,3.33
2022-07-25T04:47:15.664Z,8.30
2022-07-25T04:49:48.766Z,6.80
2022-07-25T04:52:21.764Z,7.53
2022-07-25T04:54:54.995Z,6.15
2022-07-25T04:57:29.458Z,5.43
2022-07-25T05:00:02.453Z,6.55
2022-07-25T05:02:36.117Z,4.50
2022-07-25T05:05:21.182Z,4.22
2022-07-25T05:07:57.987Z,7.53
2022-07-25T05:10:31.690Z,7.00
2022-07-25T05:13:07.133Z,6.10
2022-07-25T05:15:40.141Z,5.40
2022-07-25T05:18:13.069Z,7.38
2022-07-25T05:20:46.201Z,6.95
2022-07-25T05:23:23.014Z,5.78
2022-07-25T05:25:55.996Z,5.25
2022-07-25T05:28:30.274Z,5.00
2022-07-25T05:31:03.632Z,4.47
2022-07-25T05:33:36.696Z,4.50
2022-07-25T05:36:10.087Z,7.47
2022-07-25T05:38:43.052Z,7.53
2022-07-25T05:41:16.459Z,5.10
2022-07-25T05:43:50.954Z,5.32
2022-07-25T05:46:24.067Z,5.45
2022-07-25T05:48:59.017Z,6.65
2022-07-25T05:51:32.121Z,4.70
2022-07-25T05:54:05.898Z,6.53
2022-07-25T05:56:39.221Z,6.28
2022-07-25T05:59:13.452Z,6.78
2022-07-25T06:01:46.655Z,9.60
2022-07-25T06:04:22.915Z,7.13
2022-07-25T06:09:31.883Z,8.77
2022-07-25T06:12:05.641Z,6.30
2022-07-25T06:14:40.316Z,6.97
2022-07-25T06:17:13.322Z,9.35
2022-07-25T06:19:46.223Z,6.30
2022-07-25T06:22:20.642Z,6.57
2022-07-25T06:24:56.126Z,5.38
2022-07-25T06:27:29.617Z,8.35
2022-07-25T06:30:04.556Z,4.72
2022-07-25T06:32:37.618Z,8.07
2022-07-25T06:35:11.312Z,7.97
2022-07-25T06:37:44.358Z,9.80
2022-07-25T06:40:17.371Z,4.15
2022-07-25T06:42:50.336Z,8.10
2022-07-25T06:45:25.402Z,4.72
2022-07-25T06:47:58.529Z,7.30
2022-07-25T06:50:31.569Z,4.35
2022-07-25T06:53:04.596Z,6.38
2022-07-25T06:55:37.760Z,7.75
2022-07-25T06:58:10.812Z,7.22
2022-07-25T07:00:45.226Z,6.57
2022-07-25T07:03:18.505Z,6.40
2022-07-25T07:05:51.788Z,11.55
2022-07-25T07:08:24.861Z,5.90
2022-07-25T07:13:48.960Z,11.95
2022-07-25T07:16:22.261Z,8.90
2022-07-25T07:18:55.250Z,9.50
2022-07-25T07:21:28.278Z,5.47
2022-07-25T07:24:02.180Z,4.85
2022-07-25T07:26:35.575Z,12.27
2022-07-25T07:29:10.052Z,6.60
2022-07-25T07:31:43.375Z,36.00
2022-07-25T07:34:16.807Z,7.82
2022-07-25T07:36:53.144Z,8.70
2022-07-25T07:39:27.845Z,12.82
2022-07-25T07:42:01.576Z,5.88
2022-07-25T07:44:35.799Z,8.48
2022-07-25T07:47:14.557Z,14.88
2022-07-25T07:49:50.304Z,9.38
2022-07-25T07:52:23.633Z,5.20
2022-07-25T07:55:13.911Z,7.88
2022-07-25T07:57:46.917Z,8.00
2022-07-25T08:00:23.184Z,6.07
2022-07-25T08:02:57.059Z,9.18
2022-07-25T08:05:32.066Z,6.68
2022-07-25T08:08:06.701Z,8.43
2022-07-25T08:10:42.038Z,5.28
2022-07-25T08:13:17.669Z,9.45
2022-07-25T08:15:53.807Z,7.53
2022-07-25T08:18:30.513Z,11.75
2022-07-25T08:21:06.325Z,8.05
2022-07-25T08:23:39.720Z,8.85
2022-07-25T08:26:14.139Z,10.70
2022-07-25T08:28:52.569Z,6.15
2022-07-25T08:31:34.282Z,6.43
2022-07-25T08:34:07.751Z,10.63
2022-07-25T08:36:40.820Z,12.05
2022-07-25T08:39:14.336Z,7.07
2022-07-25T08:41:47.905Z,8.55
2022-07-25T08:44:23.734Z,11.05
2022-07-25T08:46:58.973Z,14.23
2022-07-25T08:49:37.424Z,6.57
2022-07-25T08:52:10.427Z,4.97
2022-07-25T08:54:45.531Z,7.40
2022-07-25T08:57:19.068Z,16.20
2022-07-25T08:59:52.562Z,10.00
2022-07-25T09:02:27.708Z,6.78
2022-07-25T09:05:01.264Z,6.05
2022-07-25T09:07:35.753Z,4.53
2022-07-25T09:10:16.863Z,7.95
2022-07-25T09:12:54.660Z,9.82
2022-07-25T09:15:30.564Z,5.80
2022-07-25T09:18:08.741Z,8.07
2022-07-25T09:20:46.225Z,6.50
2022-07-25T09:23:30.538Z,6.70
2022-07-25T09:26:05.557Z,5.78
2022-07-25T09:28:42.409Z,7.50
2022-07-25T09:31:17.568Z,10.55
2022-07-25T09:33:56.193Z,10.88
2022-07-25T09:36:29.410Z,15.43
2022-07-25T09:39:05.749Z,14.02
2022-07-25T09:41:41.334Z,8.27
2022-07-25T09:44:18.139Z,10.02
2022-07-25T09:46:51.625Z,9.38
2022-07-25T09:49:26.891Z,7.80
2022-07-25T09:52:01.547Z,9.95
2022-07-25T09:54:35.560Z,10.05
2022-07-25T09:57:08.630Z,6.97
2022-07-25T09:59:41.807Z,5.82
2022-07-25T10:02:25.805Z,6.57
2022-07-25T10:05:13.818Z,5.80
2022-07-25T10:07:49.346Z,8.85
2022-07-25T10:10:29.599Z,7.55
2022-07-25T10:13:10.222Z,6.95
2022-07-25T10:15:46.568Z,6.45
2022-07-25T10:18:21.563Z,7.50
2022-07-25T10:21:24.450Z,11.45
2022-07-25T10:24:00.838Z,8.50
2022-07-25T10:26:35.933Z,7.75
2022-07-25T10:29:10.358Z,8.02
2022-07-25T10:31:50.359Z,6.80
2022-07-25T10:34:30.529Z,7.07
2022-07-25T10:37:14.186Z,6.07
2022-07-25T10:39:48.591Z,8.90
2022-07-25T10:42:23.888Z,9.48
2022-07-25T10:44:57.841Z,5.13
2022-07-25T10:47:31.613Z,5.15
2022-07-25T10:50:19.083Z,7.78
2022-07-25T10:53:07.749Z,6.32
2022-07-25T10:55:41.109Z,11.55
2022-07-25T10:58:18.275Z,9.75
2022-07-25T11:00:52.575Z,6.35
2022-07-25T11:03:27.423Z,6.47
2022-07-25T11:06:00.616Z,6.63
2022-07-25T11:08:35.806Z,6.00
2022-07-25T11:11:09.124Z,9.68
2022-07-25T11:13:44.341Z,6.55
2022-07-25T11:16:18.707Z,9.20
2022-07-25T11:18:51.685Z,11.00
2022-07-25T11:21:24.686Z,8.05
2022-07-25T11:23:58.974Z,6.82
2022-07-25T11:26:32.189Z,6.45
2022-07-25T11:29:05.322Z,6.88
2022-07-25T11:31:38.580Z,6.82
2022-07-25T11:34:11.726Z,8.18
2022-07-25T11:36:44.867Z,5.88
2022-07-25T11:39:20.809Z,8.68
2022-07-25T11:42:02.561Z,7.22
2022-07-25T11:44:44.261Z,10.25
2022-07-25T11:47:25.412Z,8.13
2022-07-25T11:50:00.922Z,7.60
2022-07-25T11:52:36.492Z,5.25
2022-07-25T11:55:13.485Z,6.57
2022-07-25T11:57:48.579Z,11.13
2022-07-25T12:00:22.693Z,5.60
2022-07-25T12:02:56.340Z,15.80
2022-07-25T12:05:33.751Z,9.65
2022-07-25T12:08:11.772Z,9.07
2022-07-25T12:10:48.261Z,8.45
2022-07-25T12:13:25.675Z,7.03
2022-07-25T12:16:00.065Z,8.43
2022-07-25T12:18:33.204Z,6.07
2022-07-25T12:21:06.612Z,5.45
2022-07-25T12:23:42.173Z,4.63
2022-07-25T12:26:19.686Z,8.00
2022-07-25T12:28:53.116Z,5.50
2022-07-25T12:31:28.550Z,7.40
2022-07-25T12:34:01.645Z,8.02
2022-07-25T12:36:38.296Z,6.25
2022-07-25T12:39:11.740Z,6.22
2022-07-25T12:41:46.698Z,5.20
2022-07-25T12:44:19.809Z,5.45
2022-07-25T12:46:53.403Z,9.05
2022-07-25T12:49:26.512Z,12.38
2022-07-25T12:51:59.422Z,8.65
2022-07-25T12:54:32.432Z,5.63
2022-07-25T12:57:07.285Z,14.15
2022-07-25T12:59:40.630Z,6.88
2022-07-25T13:02:13.930Z,8.10
2022-07-25T13:04:48.981Z,6.93
2022-07-25T13:07:21.929Z,8.65
2022-07-25T13:09:55.196Z,12.52
2022-07-25T13:12:30.209Z,10.65
2022-07-25T13:15:03.962Z,8.93
2022-07-25T13:17:37.250Z,9.63
2022-07-25T13:20:11.956Z,6.28
2022-07-25T13:22:44.956Z,8.18
2022-07-25T13:25:18.336Z,7.22
2022-07-25T13:27:52.750Z,10.63
2022-07-25T13:30:25.929Z,7.53
2022-07-25T13:32:59.732Z,6.28
2022-07-25T13:35:38.786Z,9.20
2022-07-25T13:38:13.021Z,8.70
2022-07-25T13:40:46.204Z,7.43
2022-07-25T13:43:20.657Z,8.90
2022-07-25T13:45:53.734Z,9.05
2022-07-25T13:48:30.079Z,10.27
2022-07-25T13:51:04.747Z,8.48
2022-07-25T13:53:37.636Z,8.20
2022-07-25T13:56:11.811Z,9.43
2022-07-25T13:58:48.066Z,7.97
2022-07-25T14:01:21.477Z,6.57
2022-07-25T14:03:54.541Z,7.97
2022-07-25T14:06:27.792Z,7.03
2022-07-25T14:09:00.706Z,9.07
2022-07-25T14:11:34.158Z,6.82
2022-07-25T14:14:08.435Z,5.95
2022-07-25T14:16:41.924Z,6.68
2022-07-25T14:19:14.953Z,8.45
2022-07-25T14:21:48.155Z,9.05
2022-07-25T14:24:21.066Z,13.68
2022-07-25T14:26:55.143Z,16.65
2022-07-25T14:29:30.692Z,8.38
2022-07-25T14:32:04.079Z,12.10
2022-07-25T14:34:37.974Z,13.80
2022-07-25T14:37:11.005Z,11.23
2022-07-25T14:39:43.990Z,13.85
2022-07-25T14:42:17.922Z,8.50
2022-07-25T14:44:52.256Z,12.27
2022-07-25T14:47:27.293Z,10.05
2022-07-25T14:50:00.550Z,12.68
2022-07-25T14:52:33.620Z,10.30
2022-07-25T14:55:08.006Z,12.73
2022-07-25T14:57:41.414Z,9.18
2022-07-25T15:00:16.538Z,10.07
2022-07-25T15:02:49.690Z,8.80
2022-07-25T15:05:22.742Z,9.50
2022-07-25T15:07:55.963Z,11.45
2022-07-25T15:10:28.944Z,9.60
2022-07-25T15:13:29.304Z,13.60
2022-07-25T15:15:57.179Z,11.32
2022-07-25T15:18:30.426Z,8.35
2022-07-25T15:21:03.322Z,6.55
2022-07-25T15:23:36.524Z,10.40
2022-07-25T15:26:09.544Z,9.27
2022-07-25T15:28:42.547Z,7.53
2022-07-25T15:31:17.261Z,11.13
2022-07-25T15:33:50.498Z,9.27
2022-07-25T15:36:28.783Z,13.00
2022-07-25T15:39:02.542Z,8.45
2022-07-25T15:41:36.087Z,9.68
2022-07-25T15:44:09.135Z,8.68
2022-07-25T15:46:43.490Z,10.75
2022-07-25T15:49:17.043Z,15.27
2022-07-25T15:51:49.961Z,13.65
2022-07-25T15:54:27.716Z,23.45
2022-07-25T15:57:02.748Z,12.55
2022-07-25T15:59:36.008Z,18.15
2022-07-25T16:02:13.105Z,21.00
2022-07-25T16:04:46.503Z,15.27
2022-07-25T16:07:19.656Z,10.90
2022-07-25T16:09:55.276Z,15.65
2022-07-25T16:12:28.863Z,18.73
2022-07-25T16:15:02.197Z,11.00
2022-07-25T16:17:37.926Z,8.65
2022-07-25T16:20:12.001Z,11.55
2022-07-25T16:22:45.393Z,17.08
2022-07-25T16:25:18.663Z,15.75
2022-07-25T16:27:51.823Z,10.68
2022-07-25T16:30:25.332Z,15.85
2022-07-25T16:32:59.814Z,17.88
2022-07-25T16:35:33.327Z,19.15
2022-07-25T16:38:06.750Z,13.05
2022-07-25T16:40:39.971Z,16.88
2022-07-25T16:43:12.898Z,14.48
2022-07-25T16:45:45.985Z,14.48
2022-07-25T16:48:20.316Z,15.07
2022-07-25T16:50:53.795Z,14.52
2022-07-25T16:53:26.733Z,10.93
2022-07-25T16:56:00.230Z,10.85
2022-07-25T16:58:34.934Z,15.52
2022-07-25T17:01:07.947Z,13.98
2022-07-25T17:03:42.271Z,14.90
2022-07-25T17:06:16.306Z,15.30
2022-07-25T17:08:49.412Z,15.82
2022-07-25T17:11:22.470Z,17.08
2022-07-25T17:13:55.381Z,12.75
2022-07-25T17:16:28.588Z,16.60
2022-07-25T17:19:03.092Z,14.73
2022-07-25T17:21:36.629Z,15.93
2022-07-25T17:24:10.147Z,18.92
2022-07-25T17:26:43.739Z,14.02
2022-07-25T17:29:16.675Z,19.10
2022-07-25T17:31:49.841Z,11.63
2022-07-25T17:34:25.174Z,12.38
2022-07-25T17:37:02.635Z,11.88
2022-07-25T17:39:36.129Z,11.00
2022-07-25T17:42:09.213Z,9.18
2022-07-25T17:44:42.210Z,15.68
2022-07-25T17:47:15.332Z,10.50
2022-07-25T17:49:49.684Z,13.50
2022-07-25T17:52:22.720Z,11.15
2022-07-25T17:54:55.746Z,14.88
2022-07-25T17:57:29.261Z,12.85
2022-07-25T18:00:02.305Z,17.13
2022-07-25T18:02:36.311Z,11.98
2022-07-25T18:05:10.791Z,14.00
2022-07-25T18:07:48.127Z,14.27
2022-07-25T18:10:23.894Z,15.02
2022-07-25T18:12:57.000Z,15.82
2022-07-25T18:15:29.957Z,13.32
2022-07-25T18:18:03.084Z,14.95
2022-07-25T18:20:39.885Z,15.95
2022-07-25T18:23:12.972Z,17.08
2022-07-25T18:25:45.937Z,16.63
2022-07-25T18:28:19.014Z,13.07
2022-07-25T18:30:52.033Z,16.45
2022-07-25T18:33:25.577Z,13.38
2022-07-25T18:36:04.129Z,10.77
2022-07-25T18:38:40.904Z,15.38
2022-07-25T18:41:30.989Z,13.88
2022-07-25T18:44:05.159Z,12.10
2022-07-25T18:46:39.779Z,10.98
2022-07-25T18:49:14.475Z,16.33
2022-07-25T18:51:48.652Z,17.13
2022-07-25T18:54:22.182Z,18.05
2022-07-25T18:56:55.191Z,17.58
2022-07-25T18:59:28.393Z,15.13
2022-07-25T19:02:01.343Z,13.70
2022-07-25T19:04:34.664Z,12.82
2022-07-25T19:07:09.989Z,12.30
2022-07-25T19:09:43.128Z,10.00
2022-07-25T19:12:16.041Z,13.95
2022-07-25T19:14:49.012Z,11.13
2022-07-25T19:17:23.816Z,11.73
2022-07-25T19:19:57.120Z,16.27
2022-07-25T19:22:31.449Z,14.88
2022-07-25T19:25:08.108Z,15.60
2022-07-25T19:27:41.761Z,17.25
2022-07-25T19:30:18.240Z,15.18
2022-07-25T19:32:51.236Z,13.20
2022-07-25T19:35:26.381Z,13.13
2022-07-25T19:38:00.801Z,12.77
2022-07-25T19:40:34.734Z,12.73
2022-07-25T19:43:07.728Z,15.98
2022-07-25T19:45:41.000Z,17.83
2022-07-25T19:48:14.106Z,14.75
2022-07-25T19:50:47.344Z,16.35
2022-07-25T19:53:25.453Z,14.43
2022-07-25T19:56:02.143Z,15.80
2022-07-25T19:58:38.577Z,12.27
2022-07-25T20:01:12.379Z,13.20
2022-07-25T20:03:45.287Z,11.23
2022-07-25T20:06:20.803Z,10.43
2022-07-25T20:08:55.076Z,15.07
2022-07-25T20:11:28.936Z,8.98
2022-07-25T20:14:02.122Z,10.15
2022-07-25T20:16:36.080Z,14.25
2022-07-25T20:19:11.698Z,12.05
2022-07-25T20:21:45.268Z,11.43
2022-07-25T20:24:21.645Z,10.45
2022-07-25T20:26:55.010Z,8.50
2022-07-25T20:29:28.129Z,13.65
2022-07-25T20:32:02.703Z,9.82
2022-07-25T20:34:35.823Z,13.52
2022-07-25T20:37:09.027Z,15.85
2022-07-25T20:39:45.787Z,11.90
2022-07-25T20:42:21.483Z,11.90
2022-07-25T20:44:54.362Z,12.25
2022-07-25T20:47:27.380Z,11.77
2022-07-25T20:50:00.410Z,14.65
2022-07-25T20:52:33.599Z,12.82
2022-07-25T20:55:09.139Z,13.07
2022-07-25T20:57:43.506Z,10.45
2022-07-25T21:00:19.255Z,13.65
2022-07-25T21:02:52.923Z,12.65
2022-07-25T21:05:26.616Z,10.70
2022-07-25T21:07:59.927Z,14.20
2022-07-25T21:10:34.823Z,15.27
2022-07-25T21:13:07.923Z,14.73
2022-07-25T21:15:40.969Z,14.95
2022-07-25T21:18:14.001Z,15.40
2022-07-25T21:20:47.301Z,16.60
2022-07-25T21:23:21.462Z,13.77
2022-07-25T21:25:55.941Z,13.65
2022-07-25T21:28:29.059Z,14.68
2022-07-25T21:31:02.065Z,18.20
2022-07-25T21:33:35.361Z,10.35
2022-07-25T21:36:09.434Z,15.75
2022-07-25T21:38:42.832Z,14.07
2022-07-25T21:41:17.171Z,10.02
2022-07-25T21:43:50.325Z,12.10
2022-07-25T21:46:23.579Z,18.55
2022-07-25T21:49:14.685Z,16.65
2022-07-25T21:51:47.927Z,13.65
2022-07-25T21:54:21.742Z,15.63
2022-07-25T21:56:56.170Z,14.88
2022-07-25T21:59:29.256Z,13.88
2022-07-25T22:02:02.759Z,18.17
2022-07-25T22:04:36.003Z,17.30
2022-07-25T22:07:09.249Z,16.52
2022-07-25T22:09:42.412Z,20.42
2022-07-25T22:12:17.031Z,15.27
2022-07-25T22:14:50.017Z,14.90
2022-07-25T22:17:24.193Z,15.15
2022-07-25T22:19:57.483Z,16.15
2022-07-25T22:22:30.590Z,15.13
2022-07-25T22:25:03.660Z,13.88
2022-07-25T22:27:38.031Z,14.45
2022-07-25T22:30:16.396Z,13.38
2022-07-25T22:32:52.012Z,14.90
2022-07-25T22:35:25.037Z,17.40
2022-07-25T22:37:58.039Z,16.00
2022-07-25T22:40:31.194Z,15.73
2022-07-25T22:43:05.618Z,14.07
2022-07-25T22:45:42.665Z,12.13
2022-07-25T22:48:16.288Z,18.98
2022-07-25T22:50:49.424Z,14.02
2022-07-25T22:53:22.477Z,19.52
2022-07-25T22:55:55.561Z,17.73
2022-07-25T22:58:29.845Z,14.63
2022-07-25T23:01:02.904Z,14.07
2022-07-25T23:03:36.212Z,15.43
2022-07-25T23:06:09.241Z,12.13
2022-07-25T23:08:42.168Z,13.65
2022-07-25T23:11:15.524Z,14.38
2022-07-25T23:13:49.938Z,15.52
2022-07-25T23:16:23.162Z,11.27
2022-07-25T23:18:57.120Z,11.80
2022-07-25T23:21:30.177Z,16.30
2022-07-25T23:24:03.093Z,13.63
2022-07-25T23:26:36.190Z,15.68
2022-07-25T23:29:10.853Z,13.65
2022-07-25T23:31:44.107Z,16.75
2022-07-25T23:34:17.086Z,14.40
2022-07-25T23:36:50.134Z,15.18
2022-07-25T23:39:23.015Z,13.15
2022-07-25T23:41:56.102Z,14.45
2022-07-25T23:44:30.706Z,13.90
2022-07-25T23:47:03.694Z,14.80
2022-07-25T23:49:38.017Z,18.17
2022-07-25T23:52:11.052Z,18.83
2022-07-25T23:54:44.170Z,9.90
2022-07-25T23:57:17.319Z,14.57
2022-07-25T23:59:51.580Z,10.82
